createdAt,value
2019-06-25T00:01:28.511Z,68.60
2019-06-25T00:03:55.179Z,68.80
2019-06-25T00:06:22.287Z,69.30
2019-06-25T00:08:49.439Z,69.60
2019-06-25T00:11:16.191Z,69.90
2019-06-25T00:13:43.166Z,70.70
2019-06-25T00:16:09.867Z,70.60
2019-06-25T00:18:36.554Z,71.00
2019-06-25T00:21:03.422Z,72.00
2019-06-25T00:23:30.352Z,72.60
2019-06-25T00:25:57.049Z,73.10
2019-06-25T00:28:24.014Z,72.80
2019-06-25T00:30:50.835Z,73.20
2019-06-25T00:33:17.563Z,74.40
2019-06-25T00:35:44.256Z,73.60
2019-06-25T00:38:11.205Z,72.70
2019-06-25T00:40:38.559Z,73.30
2019-06-25T00:43:05.347Z,73.20
2019-06-25T00:45:32.218Z,73.40
2019-06-25T00:47:59.177Z,74.10
2019-06-25T00:50:25.867Z,74.50
2019-06-25T00:52:52.664Z,74.60
2019-06-25T00:55:20.047Z,74.70
2019-06-25T00:57:46.771Z,74.50
2019-06-25T01:00:14.626Z,74.90
2019-06-25T01:02:47.198Z,74.00
2019-06-25T01:05:14.086Z,73.90
2019-06-25T01:07:40.899Z,73.90
2019-06-25T01:10:08.152Z,73.00
2019-06-25T01:12:35.263Z,71.70
2019-06-25T01:15:02.046Z,71.70
2019-06-25T01:17:28.846Z,71.30
2019-06-25T01:19:55.888Z,71.10
2019-06-25T01:22:22.538Z,70.80
2019-06-25T01:24:49.625Z,70.70
2019-06-25T01:27:16.681Z,71.00
2019-06-25T01:29:43.398Z,71.10
2019-06-25T01:32:10.099Z,70.60
2019-06-25T01:34:36.793Z,70.70
2019-06-25T01:37:03.664Z,71.40
2019-06-25T01:39:30.448Z,71.10
2019-06-25T01:41:57.145Z,72.00
2019-06-25T01:44:23.826Z,72.00
2019-06-25T01:46:50.868Z,71.90
2019-06-25T01:49:17.844Z,72.50
2019-06-25T01:51:44.566Z,72.40
2019-06-25T01:54:11.291Z,71.90
2019-06-25T01:56:37.967Z,72.00
2019-06-25T01:59:05.277Z,72.40
2019-06-25T02:01:32.184Z,72.70
2019-06-25T02:03:58.920Z,73.40
2019-06-25T02:06:25.630Z,73.30
2019-06-25T02:08:52.423Z,73.40
2019-06-25T02:11:19.156Z,74.00
2019-06-25T02:13:46.183Z,74.80
2019-06-25T02:16:13.122Z,73.80
2019-06-25T02:18:40.078Z,73.60
2019-06-25T02:21:06.751Z,73.80
2019-06-25T02:23:33.484Z,73.40
2019-06-25T02:26:00.298Z,73.50
2019-06-25T02:28:27.091Z,74.10
2019-06-25T02:31:06.467Z,73.70
2019-06-25T02:33:22.461Z,72.90
2019-06-25T02:35:49.150Z,73.30
2019-06-25T02:38:15.839Z,73.90
2019-06-25T02:40:42.536Z,74.10
2019-06-25T02:43:09.332Z,73.50
2019-06-25T02:45:36.490Z,73.70
2019-06-25T02:48:03.521Z,74.30
2019-06-25T02:50:30.639Z,74.30
2019-06-25T02:52:57.827Z,74.60
2019-06-25T02:55:24.639Z,75.00
2019-06-25T02:57:51.615Z,75.00
2019-06-25T03:00:18.863Z,74.90
2019-06-25T03:02:45.580Z,75.70
2019-06-25T03:05:13.065Z,76.50
2019-06-25T03:07:39.777Z,77.60
2019-06-25T03:10:07.444Z,76.70
2019-06-25T03:12:34.244Z,76.80
2019-06-25T03:15:00.934Z,76.70
2019-06-25T03:17:27.940Z,77.70
2019-06-25T03:19:54.685Z,78.40
2019-06-25T03:22:21.386Z,77.40
2019-06-25T03:24:48.072Z,77.30
2019-06-25T03:27:14.976Z,77.90
2019-06-25T03:29:42.191Z,78.70
2019-06-25T03:32:11.594Z,78.70
2019-06-25T03:34:37.788Z,79.70
2019-06-25T03:37:04.726Z,80.40
2019-06-25T03:39:31.624Z,80.30
2019-06-25T03:41:58.391Z,81.00
2019-06-25T03:44:25.388Z,81.00
2019-06-25T03:46:52.306Z,81.70
2019-06-25T03:49:19.044Z,81.60
2019-06-25T03:51:45.955Z,81.70
2019-06-25T03:54:12.883Z,82.30
2019-06-25T03:56:39.895Z,81.60
2019-06-25T03:59:06.613Z,81.20
2019-06-25T04:01:33.523Z,80.50
2019-06-25T04:04:00.539Z,78.40
2019-06-25T04:06:28.055Z,77.20
2019-06-25T04:08:55.046Z,76.70
2019-06-25T04:11:22.546Z,76.00
2019-06-25T04:13:49.347Z,76.10
2019-06-25T04:16:17.099Z,75.30
2019-06-25T04:18:45.488Z,74.90
2019-06-25T04:21:12.487Z,75.30
2019-06-25T04:23:39.175Z,74.90
2019-06-25T04:26:05.989Z,74.40
2019-06-25T04:28:32.764Z,73.60
2019-06-25T04:30:59.493Z,73.30
2019-06-25T04:33:26.389Z,73.60
2019-06-25T04:35:53.660Z,73.60
2019-06-25T04:38:20.718Z,71.50
2019-06-25T04:40:47.768Z,71.10
2019-06-25T04:43:14.530Z,70.20
2019-06-25T04:45:41.907Z,69.20
2019-06-25T04:48:08.820Z,69.10
2019-06-25T04:50:35.497Z,67.90
2019-06-25T04:53:02.879Z,66.30
2019-06-25T04:55:29.535Z,65.40
2019-06-25T04:57:56.455Z,63.00
2019-06-25T05:00:24.440Z,57.90
2019-06-25T05:02:51.501Z,54.30
2019-06-25T05:05:18.947Z,50.30
2019-06-25T05:07:45.640Z,47.00
2019-06-25T05:10:13.551Z,45.40
2019-06-25T05:12:40.374Z,42.60
2019-06-25T05:15:07.475Z,42.40
2019-06-25T05:17:34.559Z,41.50
2019-06-25T05:20:01.321Z,39.50
2019-06-25T05:22:28.565Z,37.80
2019-06-25T05:24:56.243Z,37.10
2019-06-25T05:27:23.158Z,37.10
2019-06-25T05:29:50.034Z,36.20
2019-06-25T05:32:16.986Z,36.80
2019-06-25T05:34:44.255Z,37.30
2019-06-25T05:37:17.232Z,38.30
2019-06-25T05:39:44.479Z,38.60
2019-06-25T05:42:11.381Z,39.10
2019-06-25T05:44:38.295Z,38.40
2019-06-25T05:47:04.967Z,37.80
2019-06-25T05:49:31.985Z,36.90
2019-06-25T05:51:59.119Z,36.30
2019-06-25T05:54:25.933Z,36.60
2019-06-25T05:56:52.595Z,37.20
2019-06-25T05:59:19.319Z,35.10
2019-06-25T06:01:47.399Z,34.40
2019-06-25T06:04:14.359Z,32.00
2019-06-25T06:06:41.445Z,31.80
2019-06-25T06:09:08.521Z,33.00
2019-06-25T06:11:35.529Z,34.60
2019-06-25T06:14:02.365Z,34.30
2019-06-25T06:16:29.197Z,34.20
2019-06-25T06:18:56.283Z,33.60
2019-06-25T06:21:23.228Z,32.10
2019-06-25T06:23:49.914Z,30.00
2019-06-25T06:26:18.804Z,30.60
2019-06-25T06:28:45.624Z,29.80
2019-06-25T06:31:17.521Z,29.60
2019-06-25T06:33:41.219Z,30.80
2019-06-25T06:36:08.287Z,31.20
2019-06-25T06:38:35.419Z,31.90
2019-06-25T06:41:03.545Z,32.20
2019-06-25T06:43:30.545Z,32.90
2019-06-25T06:45:57.559Z,33.90
2019-06-25T06:48:24.717Z,32.20
2019-06-25T06:50:51.383Z,30.80
2019-06-25T06:53:18.255Z,29.40
2019-06-25T06:55:45.392Z,28.30
2019-06-25T06:58:12.311Z,28.90
2019-06-25T07:00:39.099Z,29.20
2019-06-25T07:03:06.013Z,28.50
2019-06-25T07:05:33.273Z,27.40
2019-06-25T07:08:00.477Z,28.90
2019-06-25T07:10:27.355Z,28.30
2019-06-25T07:12:54.147Z,29.60
2019-06-25T07:15:21.568Z,30.60
2019-06-25T07:17:48.456Z,29.60
2019-06-25T07:20:24.053Z,29.90
2019-06-25T07:22:44.965Z,28.10
2019-06-25T07:25:11.987Z,28.80
2019-06-25T07:27:42.995Z,27.80
2019-06-25T07:30:17.192Z,28.10
2019-06-25T07:32:44.323Z,27.60
2019-06-25T07:35:11.244Z,28.70
2019-06-25T07:37:38.257Z,29.10
2019-06-25T07:40:06.802Z,28.90
2019-06-25T07:42:33.719Z,27.40
2019-06-25T07:45:00.529Z,26.50
2019-06-25T07:47:27.412Z,25.50
2019-06-25T07:49:54.631Z,27.30
2019-06-25T07:52:21.328Z,26.70
2019-06-25T07:54:48.118Z,26.50
2019-06-25T07:57:14.940Z,28.10
2019-06-25T07:59:41.643Z,29.10
2019-06-25T08:02:08.540Z,28.00
2019-06-25T08:04:35.379Z,26.80
2019-06-25T08:07:02.489Z,27.10
2019-06-25T08:09:29.463Z,28.40
2019-06-25T08:11:56.247Z,29.10
2019-06-25T08:14:23.825Z,27.80
2019-06-25T08:16:50.523Z,25.90
2019-06-25T08:19:17.637Z,26.20
2019-06-25T08:21:44.776Z,27.10
2019-06-25T08:24:11.502Z,27.40
2019-06-25T08:26:38.403Z,27.50
2019-06-25T08:29:05.191Z,26.30
2019-06-25T08:31:32.469Z,26.60
2019-06-25T08:33:59.637Z,25.40
2019-06-25T08:36:26.322Z,24.70
2019-06-25T08:38:53.373Z,24.20
2019-06-25T08:41:20.339Z,25.30
2019-06-25T08:43:47.136Z,24.20
2019-06-25T08:46:14.054Z,25.30
2019-06-25T08:48:41.320Z,26.20
2019-06-25T08:51:08.412Z,25.50
2019-06-25T08:53:35.137Z,24.60
2019-06-25T08:56:01.976Z,23.70
2019-06-25T08:58:28.704Z,24.00
2019-06-25T09:00:55.403Z,24.00
2019-06-25T09:03:22.164Z,25.40
2019-06-25T09:05:49.139Z,25.70
2019-06-25T09:08:15.805Z,26.10
2019-06-25T09:10:42.924Z,26.80
2019-06-25T09:13:09.842Z,26.10
2019-06-25T09:15:36.899Z,25.40
2019-06-25T09:18:03.854Z,25.10
2019-06-25T09:20:30.634Z,25.10
2019-06-25T09:22:59.695Z,26.60
2019-06-25T09:25:26.416Z,26.70
2019-06-25T09:27:53.442Z,27.60
2019-06-25T09:30:20.684Z,29.20
2019-06-25T09:32:47.508Z,28.50
2019-06-25T09:35:18.856Z,28.80
2019-06-25T09:37:43.237Z,29.10
2019-06-25T09:40:09.447Z,29.30
2019-06-25T09:42:35.582Z,30.00
2019-06-25T09:45:01.665Z,29.70
2019-06-25T09:47:29.255Z,30.10
2019-06-25T09:49:57.255Z,30.80
2019-06-25T09:52:24.335Z,32.10
2019-06-25T09:54:51.064Z,32.70
2019-06-25T09:57:18.349Z,32.70
2019-06-25T09:59:45.156Z,33.50
2019-06-25T10:02:12.065Z,34.80
2019-06-25T10:04:38.780Z,36.30
2019-06-25T10:07:05.559Z,36.50
2019-06-25T10:09:32.610Z,37.00
2019-06-25T10:11:59.401Z,37.80
2019-06-25T10:14:26.489Z,37.30
2019-06-25T10:16:53.675Z,37.00
2019-06-25T10:19:20.766Z,36.50
2019-06-25T10:21:47.488Z,36.50
2019-06-25T10:24:14.265Z,36.90
2019-06-25T10:26:41.504Z,37.00
2019-06-25T10:29:08.499Z,37.00
2019-06-25T10:31:35.205Z,36.80
2019-06-25T10:34:02.129Z,38.20
2019-06-25T10:36:29.016Z,39.20
2019-06-25T10:38:55.711Z,39.20
2019-06-25T10:41:22.449Z,39.20
2019-06-25T10:43:49.153Z,39.20
2019-06-25T10:46:16.359Z,38.60
2019-06-25T10:48:43.084Z,39.50
2019-06-25T10:51:09.862Z,39.00
2019-06-25T10:53:36.596Z,38.70
2019-06-25T10:56:03.695Z,39.10
2019-06-25T10:58:30.491Z,39.30
2019-06-25T11:00:58.314Z,38.90
2019-06-25T11:03:25.386Z,38.60
2019-06-25T11:06:04.155Z,38.50
2019-06-25T11:08:21.233Z,38.10
2019-06-25T11:10:48.305Z,37.70
2019-06-25T11:13:15.173Z,38.50
2019-06-25T11:15:42.261Z,39.40
2019-06-25T11:18:09.866Z,38.90
2019-06-25T11:20:37.019Z,39.70
2019-06-25T11:23:04.635Z,39.30
2019-06-25T11:25:31.723Z,39.30
2019-06-25T11:27:58.415Z,38.70
2019-06-25T11:30:25.206Z,37.70
2019-06-25T11:32:51.903Z,38.70
2019-06-25T11:35:18.709Z,39.40
2019-06-25T11:37:45.559Z,39.80
2019-06-25T11:40:14.042Z,39.70
2019-06-25T11:42:41.804Z,39.10
2019-06-25T11:45:09.792Z,39.30
2019-06-25T11:47:36.600Z,39.70
2019-06-25T11:50:04.251Z,39.80
2019-06-25T11:52:30.945Z,39.70
2019-06-25T11:54:57.942Z,39.10
2019-06-25T11:57:24.695Z,39.40
2019-06-25T11:59:51.360Z,39.40
2019-06-25T12:02:18.333Z,39.30
2019-06-25T12:04:45.376Z,39.50
2019-06-25T12:07:12.123Z,39.50
2019-06-25T12:09:39.109Z,40.00
2019-06-25T12:12:05.788Z,39.60
2019-06-25T12:14:32.499Z,39.10
2019-06-25T12:16:59.208Z,38.70
2019-06-25T12:19:25.896Z,39.00
2019-06-25T12:21:52.862Z,39.00
2019-06-25T12:24:19.547Z,39.10
2019-06-25T12:26:46.366Z,39.30
2019-06-25T12:29:13.307Z,39.70
2019-06-25T12:31:39.974Z,39.70
2019-06-25T12:34:06.673Z,40.20
2019-06-25T12:36:33.471Z,40.20
2019-06-25T12:39:00.211Z,40.00
2019-06-25T12:41:27.256Z,39.90
2019-06-25T12:43:54.048Z,39.40
2019-06-25T12:46:20.707Z,39.30
2019-06-25T12:48:47.448Z,38.90
2019-06-25T12:51:15.301Z,39.40
2019-06-25T12:53:42.210Z,39.40
2019-06-25T12:56:08.999Z,40.00
2019-06-25T12:58:35.778Z,40.10
2019-06-25T13:01:02.704Z,40.00
2019-06-25T13:03:29.419Z,39.90
2019-06-25T13:05:56.072Z,40.00
2019-06-25T13:08:23.027Z,39.60
2019-06-25T13:10:50.021Z,39.30
2019-06-25T13:13:17.056Z,39.40
2019-06-25T13:15:43.993Z,39.20
2019-06-25T13:18:10.794Z,38.90
2019-06-25T13:20:37.489Z,38.60
2019-06-25T13:23:04.262Z,38.30
2019-06-25T13:25:31.469Z,38.50
2019-06-25T13:27:58.193Z,38.20
2019-06-25T13:30:25.339Z,38.80
2019-06-25T13:32:52.248Z,38.80
2019-06-25T13:35:19.006Z,39.10
2019-06-25T13:37:45.676Z,39.30
2019-06-25T13:40:12.969Z,38.30
2019-06-25T13:42:39.946Z,38.60
2019-06-25T13:45:07.543Z,38.80
2019-06-25T13:47:34.328Z,38.50
2019-06-25T13:50:01.437Z,38.60
2019-06-25T13:52:28.148Z,38.90
2019-06-25T13:54:54.804Z,39.00
2019-06-25T13:57:22.062Z,38.40
2019-06-25T13:59:48.766Z,38.70
2019-06-25T14:02:15.468Z,39.00
2019-06-25T14:04:42.144Z,38.50
2019-06-25T14:07:08.857Z,38.40
2019-06-25T14:09:35.540Z,38.90
2019-06-25T14:12:02.227Z,38.60
2019-06-25T14:14:29.042Z,38.90
2019-06-25T14:16:55.715Z,38.50
2019-06-25T14:19:22.399Z,38.40
2019-06-25T14:21:49.225Z,37.80
2019-06-25T14:24:15.903Z,38.10
2019-06-25T14:26:42.574Z,38.80
2019-06-25T14:29:09.567Z,38.90
2019-06-25T14:31:36.344Z,38.90
2019-06-25T14:34:03.516Z,38.70
2019-06-25T14:36:30.253Z,38.80
2019-06-25T14:38:56.930Z,39.10
2019-06-25T14:41:23.656Z,38.90
2019-06-25T14:43:50.623Z,37.60
2019-06-25T14:46:17.448Z,38.90
2019-06-25T14:48:44.236Z,38.70
2019-06-25T14:51:11.167Z,38.70
2019-06-25T14:53:38.178Z,38.60
2019-06-25T14:56:04.963Z,38.70
2019-06-25T14:58:31.665Z,39.30
2019-06-25T15:00:58.371Z,38.90
2019-06-25T15:03:25.044Z,38.70
2019-06-25T15:05:51.884Z,38.30
2019-06-25T15:08:30.498Z,38.10
2019-06-25T15:10:47.148Z,38.50
2019-06-25T15:13:14.222Z,38.10
2019-06-25T15:15:41.176Z,38.40
2019-06-25T15:18:07.884Z,38.80
2019-06-25T15:20:35.227Z,38.10
2019-06-25T15:23:02.046Z,39.10
2019-06-25T15:25:28.866Z,38.60
2019-06-25T15:27:55.543Z,38.10
2019-06-25T15:30:26.287Z,38.10
2019-06-25T15:32:53.035Z,38.50
2019-06-25T15:35:19.733Z,38.20
2019-06-25T15:37:46.499Z,38.60
2019-06-25T15:40:13.553Z,38.60
2019-06-25T15:42:40.519Z,38.50
2019-06-25T15:45:07.313Z,39.10
2019-06-25T15:47:34.234Z,39.50
2019-06-25T15:50:01.305Z,39.30
2019-06-25T15:52:28.091Z,39.40
2019-06-25T15:54:54.847Z,39.30
2019-06-25T15:57:21.598Z,39.40
2019-06-25T15:59:48.540Z,39.30
2019-06-25T16:02:15.307Z,39.90
2019-06-25T16:04:41.996Z,39.70
2019-06-25T16:07:08.776Z,39.80
2019-06-25T16:09:35.967Z,40.20
2019-06-25T16:12:02.915Z,40.20
2019-06-25T16:14:29.590Z,40.20
2019-06-25T16:16:56.335Z,39.80
2019-06-25T16:19:23.110Z,39.80
2019-06-25T16:21:50.018Z,40.40
2019-06-25T16:24:16.703Z,40.30
2019-06-25T16:26:43.375Z,40.30
2019-06-25T16:29:10.058Z,40.40
2019-06-25T16:31:36.791Z,40.80
2019-06-25T16:34:03.868Z,40.70
2019-06-25T16:36:30.652Z,40.60
2019-06-25T16:38:57.367Z,40.60
2019-06-25T16:41:24.522Z,41.10
2019-06-25T16:43:51.307Z,41.40
2019-06-25T16:46:18.208Z,41.00
2019-06-25T16:48:44.911Z,41.50
2019-06-25T16:51:11.960Z,40.90
2019-06-25T16:53:38.938Z,41.50
2019-06-25T16:56:05.803Z,41.20
2019-06-25T16:58:35.588Z,41.40
2019-06-25T17:01:01.034Z,41.50
2019-06-25T17:03:28.013Z,41.60
2019-06-25T17:05:54.898Z,41.80
2019-06-25T17:08:21.699Z,41.90
2019-06-25T17:10:48.411Z,42.10
2019-06-25T17:13:15.077Z,42.60
2019-06-25T17:15:43.180Z,42.70
2019-06-25T17:18:10.451Z,42.30
2019-06-25T17:20:37.122Z,42.10
2019-06-25T17:23:07.993Z,41.80
2019-06-25T17:25:32.614Z,41.80
2019-06-25T17:27:59.298Z,42.10
2019-06-25T17:30:26.642Z,41.70
2019-06-25T17:32:53.338Z,41.70
2019-06-25T17:35:20.259Z,42.30
2019-06-25T17:37:46.959Z,42.40
2019-06-25T17:40:14.439Z,42.20
2019-06-25T17:42:41.207Z,42.50
2019-06-25T17:45:08.668Z,43.00
2019-06-25T17:47:35.609Z,43.10
2019-06-25T17:50:02.840Z,43.10
2019-06-25T17:52:29.503Z,43.30
2019-06-25T17:54:56.367Z,43.40
2019-06-25T17:57:23.192Z,43.60
2019-06-25T17:59:50.166Z,43.80
2019-06-25T18:02:17.030Z,43.70
2019-06-25T18:04:43.959Z,43.90
2019-06-25T18:07:10.781Z,43.80
2019-06-25T18:09:40.718Z,44.20
2019-06-25T18:12:06.322Z,44.30
2019-06-25T18:14:33.001Z,44.20
2019-06-25T18:16:59.732Z,44.30
2019-06-25T18:19:26.859Z,44.50
2019-06-25T18:21:53.544Z,44.60
2019-06-25T18:24:20.819Z,44.50
2019-06-25T18:26:47.793Z,44.60
2019-06-25T18:29:14.470Z,44.70
2019-06-25T18:31:41.182Z,44.80
2019-06-25T18:34:08.235Z,44.60
2019-06-25T18:36:35.143Z,44.80
2019-06-25T18:39:01.827Z,44.80
2019-06-25T18:41:28.821Z,44.20
2019-06-25T18:43:55.486Z,44.50
2019-06-25T18:46:22.202Z,44.40
2019-06-25T18:48:49.394Z,44.70
2019-06-25T18:51:16.291Z,44.80
2019-06-25T18:53:43.507Z,45.10
2019-06-25T18:56:10.258Z,45.50
2019-06-25T18:58:37.233Z,45.70
2019-06-25T19:01:04.208Z,46.20
2019-06-25T19:03:30.933Z,46.20
2019-06-25T19:05:57.628Z,47.20
2019-06-25T19:08:24.887Z,47.20
2019-06-25T19:10:51.724Z,50.10
2019-06-25T19:13:18.691Z,51.40
2019-06-25T19:15:45.603Z,51.40
2019-06-25T19:18:12.305Z,52.10
2019-06-25T19:20:38.990Z,52.20
2019-06-25T19:23:05.655Z,53.60
2019-06-25T19:25:32.576Z,55.50
2019-06-25T19:27:59.270Z,57.10
2019-06-25T19:30:26.502Z,58.70
2019-06-25T19:32:53.273Z,60.20
2019-06-25T19:35:20.272Z,61.20
2019-06-25T19:37:46.990Z,63.00
2019-06-25T19:40:15.658Z,64.80
2019-06-25T19:42:42.536Z,65.10
2019-06-25T19:45:09.595Z,65.90
2019-06-25T19:47:49.016Z,66.30
2019-06-25T19:50:16.231Z,66.20
2019-06-25T19:52:34.009Z,66.60
2019-06-25T19:55:00.715Z,67.40
2019-06-25T19:57:27.443Z,67.90
2019-06-25T19:59:54.129Z,68.30
2019-06-25T20:02:21.175Z,69.60
2019-06-25T20:04:47.941Z,70.80
2019-06-25T20:07:14.645Z,71.20
2019-06-25T20:09:41.352Z,71.80
2019-06-25T20:12:08.051Z,73.20
2019-06-25T20:14:34.799Z,74.00
2019-06-25T20:17:01.905Z,74.20
2019-06-25T20:19:28.865Z,74.70
2019-06-25T20:21:55.908Z,74.00
2019-06-25T20:24:22.587Z,73.10
2019-06-25T20:26:49.283Z,73.70
2019-06-25T20:29:15.972Z,75.40
2019-06-25T20:31:42.913Z,74.70
2019-06-25T20:34:12.044Z,74.30
2019-06-25T20:36:38.220Z,74.80
2019-06-25T20:39:06.142Z,75.10
2019-06-25T20:41:33.091Z,76.00
2019-06-25T20:44:00.084Z,75.50
2019-06-25T20:46:26.796Z,78.20
2019-06-25T20:48:55.068Z,76.50
2019-06-25T20:51:22.195Z,76.50
2019-06-25T20:53:48.870Z,74.00
2019-06-25T20:56:15.999Z,75.20
2019-06-25T20:58:42.699Z,76.10
2019-06-25T21:01:09.397Z,77.30
2019-06-25T21:03:36.599Z,76.70
2019-06-25T21:06:03.624Z,77.50
2019-06-25T21:08:30.352Z,79.00
2019-06-25T21:10:57.086Z,79.60
2019-06-25T21:13:24.078Z,81.30
2019-06-25T21:15:50.840Z,83.10
2019-06-25T21:18:17.579Z,83.20
2019-06-25T21:20:44.271Z,84.20
2019-06-25T21:23:10.971Z,85.50
2019-06-25T21:25:37.751Z,85.70
2019-06-25T21:28:04.456Z,85.50
2019-06-25T21:30:31.224Z,84.70
2019-06-25T21:32:57.898Z,85.70
2019-06-25T21:35:24.618Z,83.50
2019-06-25T21:37:51.587Z,84.10
2019-06-25T21:40:18.463Z,85.50
2019-06-25T21:42:45.559Z,83.20
2019-06-25T21:45:13.458Z,85.20
2019-06-25T21:47:40.232Z,83.60
2019-06-25T21:50:07.220Z,86.70
2019-06-25T21:52:33.895Z,84.50
2019-06-25T21:55:00.794Z,85.50
2019-06-25T21:57:27.473Z,85.50
2019-06-25T21:59:54.427Z,87.50
2019-06-25T22:02:25.772Z,86.80
2019-06-25T22:04:52.522Z,88.70
2019-06-25T22:07:19.466Z,89.60
2019-06-25T22:09:46.543Z,88.60
2019-06-25T22:12:21.140Z,88.30
2019-06-25T22:14:42.669Z,88.20
2019-06-25T22:17:09.342Z,89.50
2019-06-25T22:19:36.074Z,90.60
2019-06-25T22:22:15.822Z,91.50
2019-06-25T22:24:31.764Z,91.70
2019-06-25T22:26:58.468Z,92.10
2019-06-25T22:29:25.145Z,92.50
2019-06-25T22:31:51.842Z,92.90
2019-06-25T22:34:18.521Z,92.00
2019-06-25T22:36:45.312Z,91.60
2019-06-25T22:39:12.285Z,91.20
2019-06-25T22:41:38.981Z,92.00
2019-06-25T22:44:05.903Z,92.40
2019-06-25T22:46:32.807Z,91.70
2019-06-25T22:48:59.771Z,92.20
2019-06-25T22:51:26.466Z,92.50
2019-06-25T22:53:53.159Z,93.10
2019-06-25T22:56:20.103Z,93.50
2019-06-25T22:58:46.803Z,93.90
2019-06-25T23:01:13.474Z,94.10
2019-06-25T23:03:40.174Z,93.90
2019-06-25T23:06:07.073Z,92.10
2019-06-25T23:08:33.821Z,91.70
2019-06-25T23:11:01.044Z,91.20
2019-06-25T23:13:27.739Z,91.00
2019-06-25T23:15:54.438Z,91.90
2019-06-25T23:18:21.116Z,92.10
2019-06-25T23:20:47.888Z,93.80
2019-06-25T23:23:14.587Z,91.50
2019-06-25T23:25:41.264Z,86.80
2019-06-25T23:28:07.956Z,81.20
2019-06-25T23:30:34.629Z,76.70
2019-06-25T23:33:01.444Z,73.60
2019-06-25T23:35:28.563Z,70.90
2019-06-25T23:37:55.816Z,68.90
2019-06-25T23:40:22.537Z,67.40
2019-06-25T23:42:49.298Z,65.80
2019-06-25T23:45:16.208Z,64.80
2019-06-25T23:47:42.886Z,63.80
2019-06-25T23:50:10.091Z,63.10
2019-06-25T23:52:37.116Z,62.50
2019-06-25T23:55:04.339Z,62.20
2019-06-25T23:57:31.044Z,62.20
2019-06-25T23:59:57.956Z,60.60
